Aktualne dane pomiarowe

Uwaga, wersja testowa! Automatyczne pobieranie danych za pomocą narzędzi lub skryptów to umożliwiających jest zabronione.

Dane meteo z obszaru Polski uzyskane na podstawie depesz SYNOP pobieranych co godzinę z NWS. Najedź myszką na symbol przedstawiony w tabeli, aby uzyskać informacje co do jego znaczenia. Prosimy pamiętać, że to testowa wersja strony, która jeszcze nie jest ukończona. Stworzono również jest krótki FAQ dotyczący korzystania z tej podstrony Anomalie temperatury w chwili obecnej odniesione są do okresu referencyjnego 1951-2016. Okres ten będzie później zmieniony na 1981-2010. Kliknij ikonę aby pobrać plik CSV. Kliknij ikonę aby wygenerować mapę synoptyczną dla danego terminu.

Wybierz Datę:    

        

Tarnów (12575)

Dane terminowe dla wybranej stacji. Kliknij datę, aby otrzymać dane z tego terminu dla wszystkich stacji.

TemperaturaZachmurzenieWiatrCiśnienieOpadyPogoda
 Data t td wb tx tn tg rh  Nt Nl Cl Cm Ch ws wd g1 g2 wx mslp ppp ch 24h 12h t ww ww w1 w2  
2019-06-22 23:00:00 18.9 16.1 16.9--- 8416.0--1wx--11019.2 994.6 0.2---------
2019-06-22 22:00:00 18.9 16.7 17.3--- 8713.0--1wx--11019.1 994.5 0.4---------
2019-06-22 21:00:00 19.7 16.3 17.3--- 8117.0--1wx--11019.1 994.6 0.3---------
2019-06-22 20:00:00 20.8 16.4 17.8--- 7621.0--2wx--21018.9 994.4 0.3---------
2019-06-22 19:00:00 22.0 15.6 17.8--- 6725.0--2wx--21018.4 994.1 -0.1---------
2019-06-22 18:00:00 23.3 15.9 18.4 26.6 19.4- 6324.0--2wx--21018.5 994.3 -0.1--12------
2019-06-22 17:00:00 24.2 15.7 18.7--- 5923.0--2wx--21018.3 994.1 -0.6---------
2019-06-22 16:00:00 25.5 14.9 18.7--- 5225.0--3wx--31018.3 994.2 -0.9---------
2019-06-22 15:00:00 25.7 16.3 19.6--- 5619.0--3wx--31018.4 994.4 -1.4---------
2019-06-22 14:00:00 26.1 16.4 19.8--- 5524.0--2wx--21018.7 994.7 -1.5---------
2019-06-22 13:00:00 25.0 16.7 19.5--- 6021.0--2wx--21019.2 995.1 -1.3---------
2019-06-22 12:00:00 24.3 16.0 18.9--- 6021.0--2wx---1020.0 995.8 -0.6---------
2019-06-22 11:00:00 25.1 16.5 19.4--- 5922.0--2wx---1020.3 996.2 0.1---------
2019-06-22 10:00:00 24.0 17.7 19.7--- 6816.0--3wx--31020.6 996.4 0.5---------
2019-06-22 09:00:00 21.6 17.0 18.4--- 7513.0--2wx--21020.8 996.4 0.6---------
2019-06-22 08:00:00 21.4 17.8 18.9--- 8015.0--1wx--11020.5 996.1 0.7---------
2019-06-22 07:00:00 20.1 17.9 18.5--- 8711.0--1wx--11020.4 995.9 0.9---wx-----
2019-06-22 06:00:00 19.4 17.9 18.3 22.7 16.2 15 919.0--1wx--11020.4 995.8 1.0 0.7 0.012wx---- 6.7
2019-06-22 05:00:00 18.5 17.5 17.8--- 946.0--1wx--11020.1 995.4 1.3---wx-----
2019-06-22 04:00:00 17.5 17.2 17.3--- 983.3--0---01019.7 995.0 1.2---wx-----
2019-06-22 03:00:00 16.8 16.5 16.6--- 982.7--0---01019.6 994.8 1.3---wx-----
2019-06-22 02:00:00 16.2 15.6 15.7--- 962.5--0---01018.9 994.1 0.9---wx-----
2019-06-22 01:00:00 17.0 16.4 16.5--- 963.8--1wx--11018.6 993.8 0.8---wx-----
2019-06-22 00:00:00 17.2 16.6 16.7--- 966.0--1wx--11018.2 993.5 0.9- 0.06wx-----
2019-06-21 23:00:00 17.9 16.8 17.1--- 938.0--1wx--11017.9 993.2 0.8---wx-----
2019-06-21 22:00:00 18.6 17.3 17.7--- 9211.0--1wx--11017.6 993.0 0.8---wx-----
2019-06-21 21:00:00 19.4 17.5 18.0--- 8912.0--1wx--11017.1 992.6 0.9---------
2019-06-21 20:00:00 20.5 17.3 18.2--- 8218.0--1wx--11016.8 992.4 1.4---------
2019-06-21 19:00:00 21.2 17.0 18.3--- 7717.0--1wx--11016.6 992.2 1.7---------
2019-06-21 18:00:00 22.7 16.9 18.8 28.2 20.8- 7020.0--1wx-811015.9 991.7 1.6- 0.712------
2019-06-21 17:00:00 23.8 17.3 19.4--- 6721.0--2wx---1015.1 991.0 1.2---------
2019-06-21 16:00:00 24.4 17.9 20.0--- 6719.0--3wx--31014.6 990.5 0.4---------
2019-06-21 15:00:00 25.8 15.2 19.0--- 5219.0--2wx---1014.0 990.1 0.0---------
2019-06-21 14:00:00 28.1 14.7 19.6--- 4419.0--2wx--21013.5 989.8 -0.9---------
2019-06-21 13:00:00 27.1 13.8 18.8--- 4420.0--2wx--21013.9 990.1 -0.9---------
2019-06-21 12:00:00 25.2 16.1 19.3--- 5715.0--1wx--11014.1 990.1 -1.2- 0.76------
2019-06-21 11:00:00 24.8 17.8 20.1--- 6511.0--1wx---1014.7 990.7 -0.2---------
2019-06-21 10:00:00 23.2 18.1 19.7--- 7317.0--1wx---1015.2 991.0 0.5---wx-----
2019-06-21 09:00:00 20.9 18.5 19.2--- 8611.0--1wx--11015.7 991.3 1.1---wx-----
2019-06-21 08:00:00 21.8 17.6 18.9--- 7716.0--1wx--11015.2 990.9 1.1---wx-----
2019-06-21 07:00:00 22.2 16.9 18.6--- 7216.0--1wx--11014.7 990.5 0.7---wx-----
2019-06-21 06:00:00 21.6 17.4 18.7 21.6 18.0 18 7713.0--1wx--11014.5 990.2 0.9 3.2-12----- 6.0
2019-06-21 05:00:00 20.6 18.0 18.7--- 8516.0--1wx--11014.2 989.8 0.9---wx-----
2019-06-21 04:00:00 19.0 18.2 18.4--- 958.0--0---01014.3 989.8 1.3---wx-----
2019-06-21 03:00:00 18.4 17.7 17.9--- 967.0--0---01013.8 989.3 1.2---wx-----
2019-06-21 02:00:00 18.2 17.6 17.8--- 967.0--0---01013.4 988.9 0.6---wx-----
2019-06-21 01:00:00 18.1 17.5 17.7--- 965.0--0---01013.0 988.5 0.4---wx-----
2019-06-21 00:00:00 18.5 17.7 17.9--- 957.0--1wx--11012.6 988.1 -0.1--6wx-----
1.9 ms

 

Print Friendly, PDF & Email